Time;durP1;ratioP1;P1;durP2;ratioP2;P2;SDS_P1;SDS_P2;PMS_P1;PMS_P2;Temp;Humidity;BMP_temperature;BMP_pressure;BME280_temperature;BME280_humidity;BME280_pressure;Samples;Min_cycle;Max_cycle;Signal;HPM_P1;HPM_P2
2021/12/28 00:00:11;;;;;;;53.80;26.65;;;1.40;99.90;;;;;;5011396;28;20076;-51
2021/12/28 00:02:36;;;;;;;57.15;26.23;;;1.40;99.90;;;;;;5026673;28;20034;-53
2021/12/28 00:05:03;;;;;;;56.05;25.13;;;1.40;99.90;;;;;;5012429;28;20037;-57
2021/12/28 00:07:28;;;;;;;54.78;26.85;;;1.40;99.90;;;;;;5014770;28;20079;-56
2021/12/28 00:09:54;;;;;;;51.97;25.90;;;1.40;99.90;;;;;;5037653;23;20124;-50
2021/12/28 00:12:19;;;;;;;53.95;25.00;;;1.50;99.90;;;;;;5013868;28;20032;-50
2021/12/28 00:15:01;;;;;;;57.42;26.08;;;1.40;99.90;;;;;;5013232;28;20129;-49
2021/12/28 00:20:11;;;;;;;52.97;26.35;;;1.40;99.90;;;;;;5014701;28;20044;-53
2021/12/28 00:22:37;;;;;;;56.53;25.30;;;1.40;99.90;;;;;;5014618;28;20501;-51
2021/12/28 00:25:04;;;;;;;58.03;26.42;;;1.50;99.90;;;;;;5014708;28;20030;-50
2021/12/28 00:27:30;;;;;;;53.45;25.08;;;1.50;99.90;;;;;;5014844;28;20506;-51
2021/12/28 00:29:55;;;;;;;49.95;24.63;;;1.40;99.90;;;;;;5014711;28;20022;-50
2021/12/28 00:32:21;;;;;;;60.55;27.17;;;1.40;99.90;;;;;;5014569;28;20037;-50
2021/12/28 00:34:47;;;;;;;52.72;24.48;;;1.40;99.90;;;;;;5014472;28;20076;-50
2021/12/28 00:37:12;;;;;;;51.00;25.40;;;1.40;99.90;;;;;;5015347;28;20041;-51
2021/12/28 00:39:38;;;;;;;53.78;26.77;;;1.40;99.90;;;;;;5015282;28;20152;-51
2021/12/28 00:42:04;;;;;;;53.75;25.30;;;1.40;99.90;;;;;;5014319;28;20050;-50
2021/12/28 00:44:30;;;;;;;57.95;25.63;;;1.50;99.90;;;;;;5014272;28;20026;-54
2021/12/28 00:46:56;;;;;;;60.28;26.77;;;1.50;99.90;;;;;;5015184;28;20033;-51
2021/12/28 00:49:21;;;;;;;51.70;24.60;;;1.50;99.90;;;;;;5008759;28;20062;-51
2021/12/28 00:51:47;;;;;;;55.88;25.92;;;1.50;99.90;;;;;;5014655;28;20026;-50
2021/12/28 00:54:13;;;;;;;52.95;26.85;;;1.50;99.90;;;;;;5014440;28;20034;-50
2021/12/28 00:56:39;;;;;;;47.90;22.73;;;1.50;99.90;;;;;;5014957;28;20025;-51
2021/12/28 00:59:04;;;;;;;53.70;25.38;;;1.50;99.90;;;;;;5014009;28;20053;-52
2021/12/28 01:01:30;;;;;;;51.83;26.15;;;1.50;99.90;;;;;;5014833;28;20037;-50
2021/12/28 01:03:56;;;;;;;52.78;24.70;;;1.50;99.90;;;;;;5014151;28;20109;-51
2021/12/28 01:06:22;;;;;;;54.30;24.52;;;1.50;99.90;;;;;;5015194;28;20060;-50
2021/12/28 01:08:47;;;;;;;55.60;26.73;;;1.50;99.90;;;;;;5014202;28;20053;-50
2021/12/28 01:11:13;;;;;;;55.25;25.92;;;1.50;99.90;;;;;;5015047;28;20017;-50
2021/12/28 01:13:38;;;;;;;49.08;23.90;;;1.50;99.90;;;;;;5013403;28;20428;-51
2021/12/28 01:16:04;;;;;;;49.17;23.65;;;1.50;99.90;;;;;;5014498;28;20037;-50
2021/12/28 01:18:30;;;;;;;52.65;25.50;;;1.50;99.90;;;;;;5013640;28;20051;-52
2021/12/28 01:20:56;;;;;;;49.08;23.75;;;1.50;99.90;;;;;;5014038;28;20056;-52
2021/12/28 01:23:22;;;;;;;50.30;23.30;;;1.50;99.90;;;;;;5014044;28;20101;-53
2021/12/28 01:25:47;;;;;;;53.95;26.27;;;1.50;99.90;;;;;;5013283;28;20037;-52
2021/12/28 01:28:14;;;;;;;52.38;25.10;;;1.50;99.90;;;;;;5014159;28;20037;-52
2021/12/28 01:30:40;;;;;;;52.17;24.73;;;1.50;99.90;;;;;;5013602;28;20495;-53
2021/12/28 01:33:07;;;;;;;57.10;26.50;;;1.50;99.90;;;;;;5013899;28;20135;-52
2021/12/28 01:35:34;;;;;;;57.53;26.55;;;1.60;99.90;;;;;;5008569;28;20150;-53
2021/12/28 01:38:00;;;;;;;53.90;25.17;;;1.50;99.90;;;;;;5014213;28;20033;-52
2021/12/28 01:40:31;;;;;;;55.90;26.30;;;1.50;99.90;;;;;;5013113;28;20097;-53
2021/12/28 01:43:05;;;;;;;54.88;26.05;;;1.50;99.90;;;;;;5013955;28;20033;-52
2021/12/28 01:45:43;;;;;;;60.30;27.15;;;1.50;99.90;;;;;;5011938;28;21043;-52
2021/12/28 01:48:12;;;;;;;53.72;25.63;;;1.50;99.90;;;;;;5014242;28;20033;-51
2021/12/28 01:50:38;;;;;;;51.78;26.20;;;1.50;99.90;;;;;;5011164;28;20026;-52
2021/12/28 01:53:05;;;;;;;50.65;25.38;;;1.50;99.90;;;;;;5013409;28;20026;-52
2021/12/28 01:55:34;;;;;;;53.03;26.65;;;1.50;99.90;;;;;;5013078;28;20044;-52
2021/12/28 01:57:59;;;;;;;53.42;25.42;;;1.50;99.90;;;;;;5013740;28;20041;-51
2021/12/28 02:00:26;;;;;;;55.15;25.55;;;1.50;99.90;;;;;;5013014;28;20034;-52
2021/12/28 02:02:52;;;;;;;50.63;25.15;;;1.50;99.90;;;;;;5012893;28;20056;-52
2021/12/28 02:05:18;;;;;;;55.13;25.27;;;1.50;99.90;;;;;;5012828;28;20098;-53
2021/12/28 02:07:43;;;;;;;52.65;26.13;;;1.60;99.90;;;;;;5012571;28;20029;-52
2021/12/28 02:10:09;;;;;;;55.42;25.75;;;1.50;99.90;;;;;;5011748;28;20044;-52
2021/12/28 02:12:35;;;;;;;50.60;25.55;;;1.60;99.90;;;;;;5012690;28;20049;-52
2021/12/28 02:15:06;;;;;;;56.63;24.83;;;1.50;99.90;;;;;;5012725;28;20475;-53
2021/12/28 02:17:33;;;;;;;50.35;25.27;;;1.50;99.90;;;;;;5012760;28;20548;-52
2021/12/28 02:20:12;;;;;;;52.88;26.13;;;1.60;99.90;;;;;;5013392;28;20171;-52
2021/12/28 02:22:38;;;;;;;48.22;25.13;;;1.50;99.90;;;;;;5011823;28;20033;-52
2021/12/28 02:25:05;;;;;;;52.28;25.05;;;1.60;99.90;;;;;;5012281;28;20030;-52
2021/12/28 02:27:31;;;;;;;50.95;24.42;;;1.60;99.90;;;;;;5011734;28;20132;-52
2021/12/28 02:29:57;;;;;;;55.92;24.23;;;1.60;99.90;;;;;;5011814;28;20368;-52
2021/12/28 02:32:29;;;;;;;52.47;24.77;;;1.60;99.90;;;;;;5012958;28;20556;-53
2021/12/28 02:34:55;;;;;;;;;;;1.60;99.90;;;;;;5012784;28;20072;-53
2021/12/28 02:37:21;;;;;;;46.17;22.83;;;1.70;99.90;;;;;;5012267;28;19952;-53
2021/12/28 02:39:47;;;;;;;51.72;25.73;;;1.70;99.90;;;;;;5011659;28;20080;-54
2021/12/28 02:42:16;;;;;;;56.72;25.42;;;1.70;99.90;;;;;;5012236;28;20105;-54
2021/12/28 02:44:42;;;;;;;51.03;23.98;;;1.70;99.90;;;;;;5012333;28;20088;-53
2021/12/28 02:47:08;;;;;;;53.88;24.65;;;1.70;99.90;;;;;;5012335;28;20026;-53
2021/12/28 02:49:36;;;;;;;54.67;24.98;;;1.70;99.90;;;;;;5012835;28;20388;-52
2021/12/28 02:52:09;;;;;;;52.42;23.98;;;1.70;99.90;;;;;;5012892;28;20026;-55
2021/12/28 02:54:36;;;;;;;51.85;25.95;;;1.70;99.90;;;;;;5011961;28;20029;-53
2021/12/28 02:57:02;;;;;;;51.55;24.60;;;1.70;99.90;;;;;;5012796;28;20014;-54
2021/12/28 02:59:27;;;;;;;58.78;24.58;;;1.70;99.90;;;;;;5011906;28;20022;-51
2021/12/28 03:01:53;;;;;;;55.47;24.50;;;1.70;99.90;;;;;;5012381;28;20041;-51
2021/12/28 03:04:23;;;;;;;53.53;26.00;;;1.70;99.90;;;;;;5009903;28;20519;-52
2021/12/28 03:06:48;;;;;;;51.08;25.98;;;1.70;99.90;;;;;;5012353;28;20034;-52
2021/12/28 03:09:15;;;;;;;50.60;25.73;;;1.60;99.90;;;;;;5010091;28;20037;-52
2021/12/28 03:11:41;;;;;;;57.10;25.90;;;1.70;99.90;;;;;;5012440;28;20385;-53
2021/12/28 03:14:07;;;;;;;51.20;24.75;;;1.70;99.90;;;;;;5010991;28;20029;-52
2021/12/28 03:16:33;;;;;;;54.70;24.85;;;1.70;99.90;;;;;;5012289;28;20018;-52
2021/12/28 03:19:00;;;;;;;50.97;26.02;;;1.70;99.90;;;;;;5011772;28;20036;-53
2021/12/28 03:21:27;;;;;;;52.88;26.73;;;1.70;99.90;;;;;;5011389;28;20061;-53
2021/12/28 03:23:55;;;;;;;55.88;26.60;;;1.70;99.90;;;;;;5011545;28;20112;-53
2021/12/28 03:26:21;;;;;;;53.17;26.60;;;1.60;99.90;;;;;;5010868;28;20045;-50
2021/12/28 03:28:48;;;;;;;56.20;26.42;;;1.70;99.90;;;;;;5012361;28;20153;-50
2021/12/28 03:31:16;;;;;;;56.38;26.17;;;1.70;99.90;;;;;;5011318;28;20057;-50
2021/12/28 03:33:45;;;;;;;56.40;26.33;;;1.60;99.90;;;;;;5011913;28;20510;-51
2021/12/28 03:36:11;;;;;;;59.97;27.60;;;1.60;99.90;;;;;;5011191;28;20030;-51
2021/12/28 03:38:40;;;;;;;57.25;27.10;;;1.60;99.90;;;;;;5006414;28;20033;-55
2021/12/28 03:41:07;;;;;;;59.53;27.38;;;1.60;99.90;;;;;;5010284;28;20026;-50
2021/12/28 03:43:35;;;;;;;58.22;26.50;;;1.60;99.90;;;;;;5011993;28;20033;-50
2021/12/28 03:46:01;;;;;;;57.00;27.17;;;1.60;99.90;;;;;;5007373;28;20064;-52
2021/12/28 03:48:27;;;;;;;55.95;27.58;;;1.60;99.90;;;;;;5010593;28;20432;-51
2021/12/28 03:50:53;;;;;;;60.67;28.25;;;1.60;99.90;;;;;;5011280;28;20084;-52
2021/12/28 03:53:18;;;;;;;56.35;26.60;;;1.60;99.90;;;;;;5010561;28;20390;-53
2021/12/28 03:55:44;;;;;;;62.05;27.63;;;1.60;99.90;;;;;;5012341;28;20606;-50
2021/12/28 03:58:10;;;;;;;60.58;28.35;;;1.50;99.90;;;;;;5011208;28;20363;-50
2021/12/28 04:00:44;;;;;;;58.65;27.48;;;1.60;99.90;;;;;;5010011;28;20072;-50
2021/12/28 04:03:10;;;;;;;59.75;29.13;;;1.50;99.90;;;;;;5011803;28;20427;-50
2021/12/28 04:05:36;;;;;;;60.28;28.27;;;1.50;99.90;;;;;;5011126;28;20033;-50
2021/12/28 04:08:02;;;;;;;61.97;29.52;;;1.60;99.90;;;;;;5012010;28;20424;-50
2021/12/28 04:10:31;;;;;;;59.53;28.92;;;1.60;99.90;;;;;;5009673;28;20502;-50
2021/12/28 04:12:57;;;;;;;61.40;28.10;;;1.60;99.90;;;;;;5011539;28;20030;-54
2021/12/28 04:15:23;;;;;;;62.60;30.30;;;1.60;99.90;;;;;;5010681;28;20330;-53
2021/12/28 04:17:49;;;;;;;60.17;27.92;;;1.60;99.90;;;;;;5011677;28;20442;-52
2021/12/28 04:20:21;;;;;;;58.67;28.25;;;1.60;99.90;;;;;;5010628;28;20106;-52
2021/12/28 04:22:47;;;;;;;62.50;28.40;;;1.60;99.90;;;;;;5011436;28;20116;-52
2021/12/28 04:25:15;;;;;;;60.28;28.80;;;1.60;99.90;;;;;;5010107;28;20180;-50
2021/12/28 04:27:41;;;;;;;60.28;27.63;;;1.60;99.90;;;;;;5011850;28;20034;-50
2021/12/28 04:30:09;;;;;;;60.20;28.83;;;1.60;99.90;;;;;;5010442;28;20096;-50
2021/12/28 04:32:35;;;;;;;60.40;26.75;;;1.60;99.90;;;;;;5011462;28;20516;-50
2021/12/28 04:35:01;;;;;;;57.58;27.33;;;1.60;99.90;;;;;;5011075;28;20285;-50
2021/12/28 04:37:27;;;;;;;63.67;28.83;;;1.60;99.90;;;;;;5011536;28;20033;-50
2021/12/28 04:39:52;;;;;;;61.53;27.60;;;1.60;99.90;;;;;;5010456;28;20030;-53
2021/12/28 04:42:18;;;;;;;57.17;27.60;;;1.50;99.90;;;;;;5011081;28;20026;-52
2021/12/28 04:44:46;;;;;;;64.32;28.90;;;1.50;99.90;;;;;;5009579;28;20029;-54
2021/12/28 04:47:12;;;;;;;61.05;29.38;;;1.60;99.90;;;;;;5010810;28;20026;-54
2021/12/28 04:49:37;;;;;;;60.85;27.58;;;1.50;99.90;;;;;;5010307;28;20399;-54
2021/12/28 04:52:05;;;;;;;60.05;27.67;;;1.50;99.90;;;;;;5014502;28;20029;-52
2021/12/28 04:54:30;;;;;;;56.88;28.25;;;1.50;99.90;;;;;;5012909;28;20061;-52
2021/12/28 04:56:56;;;;;;;61.58;28.98;;;1.50;99.90;;;;;;5014760;28;20061;-52
2021/12/28 04:59:22;;;;;;;63.38;28.90;;;1.50;99.90;;;;;;5013577;28;20042;-52
2021/12/28 05:01:47;;;;;;;57.22;26.85;;;1.50;99.90;;;;;;5014680;28;20235;-52
2021/12/28 05:04:13;;;;;;;58.88;28.77;;;1.60;99.90;;;;;;5013894;28;20530;-52
2021/12/28 05:06:39;;;;;;;56.67;27.00;;;1.50;99.90;;;;;;5014619;28;20026;-52
2021/12/28 05:09:11;;;;;;;59.03;27.67;;;1.60;99.90;;;;;;5011874;28;20030;-52
2021/12/28 05:11:38;;;;;;;59.78;28.05;;;1.60;99.90;;;;;;5005553;28;20041;-52
2021/12/28 05:14:05;;;;;;;55.05;27.77;;;1.60;99.90;;;;;;5013222;28;20030;-52
2021/12/28 05:16:33;;;;;;;56.00;28.40;;;1.60;99.90;;;;;;5014455;28;20037;-54
2021/12/28 05:19:00;;;;;;;59.30;26.63;;;1.60;99.90;;;;;;5013513;28;20041;-52
2021/12/28 05:21:25;;;;;;;54.33;27.75;;;1.60;99.90;;;;;;5014314;28;20045;-52
2021/12/28 05:23:52;;;;;;;61.30;29.25;;;1.70;99.90;;;;;;5013226;28;20030;-50
2021/12/28 05:26:17;;;;;;;57.40;27.17;;;1.70;99.90;;;;;;5013443;28;20458;-50
2021/12/28 05:28:43;;;;;;;54.50;26.92;;;1.70;99.90;;;;;;5013322;28;20022;-50
2021/12/28 05:31:09;;;;;;;58.58;28.35;;;1.70;99.90;;;;;;5013122;28;20030;-50
2021/12/28 05:33:35;;;;;;;53.55;27.48;;;1.70;99.90;;;;;;5013215;28;20029;-52
2021/12/28 05:36:00;;;;;;;58.22;27.50;;;1.70;99.90;;;;;;5013539;28;20104;-49
2021/12/28 05:38:26;;;;;;;57.03;27.77;;;1.70;99.90;;;;;;5012995;28;20045;-50
2021/12/28 05:40:52;;;;;;;53.65;27.27;;;1.70;99.90;;;;;;5012987;28;20034;-51
2021/12/28 05:43:17;;;;;;;53.17;27.27;;;1.80;99.90;;;;;;5013008;28;20497;-52
2021/12/28 05:45:43;;;;;;;54.45;26.17;;;1.80;99.90;;;;;;5013085;28;20038;-54
2021/12/28 05:48:09;;;;;;;53.38;25.42;;;1.80;99.90;;;;;;5013051;28;20100;-54
2021/12/28 05:50:35;;;;;;;61.78;26.67;;;1.80;99.90;;;;;;5013893;28;20034;-54
2021/12/28 05:53:02;;;;;;;53.72;26.80;;;1.80;99.90;;;;;;5006953;28;20046;-53
2021/12/28 05:55:27;;;;;;;53.33;26.20;;;1.80;99.90;;;;;;5011796;28;20064;-54
2021/12/28 05:57:53;;;;;;;60.13;27.33;;;1.80;99.90;;;;;;5012986;28;20100;-51
2021/12/28 06:00:19;;;;;;;51.00;25.33;;;1.80;99.90;;;;;;5013904;28;20030;-51
2021/12/28 06:02:45;;;;;;;60.40;26.48;;;1.90;99.90;;;;;;5012090;28;20033;-52
2021/12/28 06:05:11;;;;;;;61.10;26.90;;;1.90;99.90;;;;;;5013220;28;20040;-52
2021/12/28 06:07:37;;;;;;;56.67;28.13;;;1.80;99.90;;;;;;5012576;28;20105;-53
2021/12/28 06:10:05;;;;;;;57.13;26.77;;;1.80;99.90;;;;;;5045069;22;20099;-58
2021/12/28 06:12:31;;;;;;;57.30;26.70;;;1.80;99.90;;;;;;5032127;28;20032;-56
2021/12/28 06:14:57;;;;;;;59.30;28.00;;;1.90;99.90;;;;;;5033899;28;20029;-55
2021/12/28 06:17:23;;;;;;;61.92;27.60;;;1.90;99.90;;;;;;5032870;28;20030;-57
2021/12/28 06:19:48;;;;;;;64.13;29.10;;;1.90;99.90;;;;;;5032331;28;20064;-58
2021/12/28 06:22:14;;;;;;;59.33;28.98;;;1.90;99.90;;;;;;5032496;28;20057;-58
2021/12/28 06:24:40;;;;;;;55.10;28.38;;;1.80;99.90;;;;;;5031305;28;20408;-57
2021/12/28 06:27:06;;;;;;;56.55;28.58;;;1.80;99.90;;;;;;5032626;28;20073;-59
2021/12/28 06:29:32;;;;;;;56.05;26.85;;;1.80;99.90;;;;;;5031387;28;20376;-58
2021/12/28 06:31:58;;;;;;;60.22;29.58;;;1.80;99.90;;;;;;5015122;28;20116;-58
2021/12/28 06:34:23;;;;;;;59.35;27.50;;;1.80;99.90;;;;;;5031384;28;20068;-58
2021/12/28 06:36:49;;;;;;;59.20;28.33;;;1.80;99.90;;;;;;5031775;28;20029;-57
2021/12/28 06:39:14;;;;;;;57.45;28.70;;;1.80;99.90;;;;;;5028313;28;20038;-57
2021/12/28 06:41:40;;;;;;;60.65;29.70;;;1.80;99.90;;;;;;5025910;28;20567;-58
2021/12/28 06:44:09;;;;;;;63.83;30.00;;;1.70;99.90;;;;;;5030523;28;20289;-58
2021/12/28 06:46:38;;;;;;;62.60;30.45;;;1.70;99.90;;;;;;5032241;28;20044;-58
2021/12/28 06:49:04;;;;;;;61.78;30.95;;;1.70;99.90;;;;;;5031694;28;20119;-58
2021/12/28 06:51:30;;;;;;;64.63;30.80;;;1.70;99.90;;;;;;5035089;28;20446;-55
2021/12/28 06:53:56;;;;;;;68.32;30.50;;;1.70;99.90;;;;;;5031114;28;20057;-56
2021/12/28 06:56:21;;;;;;;71.55;32.15;;;1.70;99.90;;;;;;5014094;28;20064;-58
2021/12/28 06:58:47;;;;;;;70.28;33.42;;;1.70;99.90;;;;;;5031281;28;20090;-56
2021/12/28 07:01:14;;;;;;;67.15;32.38;;;1.60;99.90;;;;;;5027320;28;20037;-58
2021/12/28 07:03:39;;;;;;;68.50;31.70;;;1.60;99.90;;;;;;5025849;28;20018;-55
2021/12/28 07:06:06;;;;;;;65.53;32.10;;;1.70;99.90;;;;;;5024479;28;20034;-54
2021/12/28 07:08:36;;;;;;;65.78;31.80;;;1.70;99.90;;;;;;5030765;28;20382;-57
2021/12/28 07:11:03;;;;;;;66.63;31.08;;;1.70;99.90;;;;;;5030320;28;20127;-55
2021/12/28 07:13:29;;;;;;;64.80;29.23;;;1.70;99.90;;;;;;5028703;28;20026;-57
2021/12/28 07:15:54;;;;;;;68.97;32.13;;;1.70;99.90;;;;;;5012602;28;20032;-58
2021/12/28 07:18:20;;;;;;;63.92;30.83;;;1.70;99.90;;;;;;5031421;28;20034;-54
2021/12/28 07:20:47;;;;;;;65.78;31.70;;;1.70;99.90;;;;;;5028556;28;20081;-55
2021/12/28 07:23:13;;;;;;;65.68;30.58;;;1.70;99.90;;;;;;5034515;28;20089;-57
2021/12/28 07:25:38;;;;;;;59.45;27.35;;;1.70;99.90;;;;;;5035471;28;20058;-58
2021/12/28 07:28:04;;;;;;;65.50;30.73;;;1.70;99.90;;;;;;5017753;28;20037;-58
2021/12/28 07:30:30;;;;;;;72.28;34.97;;;1.70;99.90;;;;;;5035247;28;20029;-57
2021/12/28 07:32:56;;;;;;;63.40;31.73;;;1.70;99.90;;;;;;5031979;28;20029;-55
2021/12/28 07:35:22;;;;;;;70.75;32.70;;;1.70;99.90;;;;;;5029228;28;20033;-56
2021/12/28 07:37:47;;;;;;;65.35;31.95;;;1.70;99.90;;;;;;5031473;28;20416;-58
2021/12/28 07:40:13;;;;;;;68.82;32.10;;;1.70;99.90;;;;;;5033106;28;20037;-55
2021/12/28 07:42:40;;;;;;;60.65;31.15;;;1.70;99.90;;;;;;5031065;28;20033;-55
2021/12/28 07:45:09;;;;;;;64.07;30.63;;;1.80;99.90;;;;;;5033328;28;20450;-57
2021/12/28 07:47:36;;;;;;;61.00;29.00;;;1.80;99.90;;;;;;5032565;28;20399;-56
2021/12/28 07:50:02;;;;;;;68.90;30.55;;;1.80;99.90;;;;;;5032893;28;20132;-57
2021/12/28 07:52:28;;;;;;;64.10;32.80;;;1.80;99.90;;;;;;5032341;28;20517;-57
2021/12/28 07:54:54;;;;;;;66.75;31.25;;;1.70;99.90;;;;;;5032827;28;20018;-61
2021/12/28 07:57:20;;;;;;;69.00;33.15;;;1.80;99.90;;;;;;5022412;28;20659;-61
2021/12/28 07:59:45;;;;;;;72.03;33.25;;;1.90;99.90;;;;;;5022339;28;20132;-61
2021/12/28 08:02:11;;;;;;;69.28;33.08;;;2.00;99.90;;;;;;5027029;28;20026;-59
2021/12/28 08:04:37;;;;;;;71.35;33.72;;;2.00;99.90;;;;;;5030220;28;20037;-55
2021/12/28 08:07:03;;;;;;;64.68;31.58;;;1.90;99.90;;;;;;5030000;28;20466;-56
2021/12/28 08:09:28;;;;;;;69.22;32.17;;;1.90;99.90;;;;;;5029883;28;20044;-57
2021/12/28 08:11:54;;;;;;;67.50;33.22;;;1.90;99.90;;;;;;5029565;28;20026;-53
2021/12/28 08:14:20;;;;;;;65.22;33.15;;;1.90;99.90;;;;;;5029819;28;20463;-56
2021/12/28 08:16:46;;;;;;;65.53;32.78;;;1.80;99.90;;;;;;5024070;28;20026;-55
2021/12/28 08:19:11;;;;;;;67.40;33.80;;;1.80;99.90;;;;;;5023216;28;20171;-54
2021/12/28 08:21:37;;;;;;;73.25;31.88;;;1.80;99.90;;;;;;5024708;28;20430;-55
2021/12/28 08:24:04;;;;;;;62.70;32.00;;;1.80;99.90;;;;;;5027003;28;20207;-54
2021/12/28 08:26:29;;;;;;;69.55;33.95;;;1.80;99.90;;;;;;5028536;28;20579;-54
2021/12/28 08:28:55;;;;;;;73.60;33.35;;;1.80;99.90;;;;;;5022644;28;20196;-55
2021/12/28 08:31:20;;;;;;;74.30;32.90;;;1.80;99.90;;;;;;5030589;28;20079;-54
2021/12/28 08:33:46;;;;;;;74.93;34.42;;;1.80;99.90;;;;;;5023013;28;20033;-53
2021/12/28 08:36:12;;;;;;;78.85;33.47;;;1.80;99.90;;;;;;5031380;28;20033;-55
2021/12/28 08:38:39;;;;;;;66.20;32.42;;;1.80;99.90;;;;;;5032694;28;20037;-56
2021/12/28 08:41:05;;;;;;;73.80;34.17;;;1.70;99.90;;;;;;5016855;28;20037;-57
2021/12/28 08:43:31;;;;;;;75.60;34.88;;;1.80;99.90;;;;;;5033185;28;20041;-56
2021/12/28 08:45:57;;;;;;;67.95;33.05;;;1.80;99.90;;;;;;5032534;28;20166;-57
2021/12/28 08:48:23;;;;;;;66.88;32.03;;;1.90;99.90;;;;;;5012889;28;20557;-57
2021/12/28 08:50:49;;;;;;;69.70;33.22;;;1.90;99.90;;;;;;5032681;28;20372;-55
2021/12/28 08:53:15;;;;;;;69.72;32.45;;;1.80;99.90;;;;;;5031895;28;20193;-55
2021/12/28 08:55:41;;;;;;;63.90;30.70;;;1.80;99.90;;;;;;5033909;28;20033;-56
2021/12/28 08:58:07;;;;;;;70.93;32.45;;;1.80;99.90;;;;;;5032541;28;20467;-56
2021/12/28 09:00:34;;;;;;;74.07;34.22;;;1.80;99.90;;;;;;5030142;28;20053;-55
2021/12/28 09:03:00;;;;;;;72.68;34.58;;;1.80;99.90;;;;;;5031547;28;20021;-56
2021/12/28 09:05:28;;;;;;;71.93;33.78;;;1.80;99.90;;;;;;5032386;28;20041;-55
2021/12/28 09:07:55;;;;;;;73.35;32.60;;;1.80;99.90;;;;;;5029256;28;20109;-52
2021/12/28 09:10:21;;;;;;;72.00;32.33;;;1.80;99.90;;;;;;5031206;28;20044;-54
2021/12/28 09:12:47;;;;;;;77.90;35.67;;;1.80;99.90;;;;;;5012893;28;20128;-52
2021/12/28 09:15:13;;;;;;;75.20;36.05;;;1.80;99.90;;;;;;5031753;28;20108;-55
2021/12/28 09:17:40;;;;;;;70.97;32.83;;;1.80;99.90;;;;;;5031238;28;20034;-53
2021/12/28 09:20:10;;;;;;;79.40;35.28;;;1.80;99.90;;;;;;5013060;28;20549;-56
2021/12/28 09:22:35;;;;;;;80.93;35.55;;;1.80;99.90;;;;;;5030590;28;20133;-57
2021/12/28 09:25:01;;;;;;;88.00;36.72;;;1.90;99.90;;;;;;5031268;28;20029;-56
2021/12/28 09:27:27;;;;;;;90.28;38.17;;;1.90;99.90;;;;;;5031319;28;20037;-55
2021/12/28 09:29:52;;;;;;;83.50;35.80;;;1.90;99.90;;;;;;5030568;28;20034;-54
2021/12/28 09:32:18;;;;;;;82.43;34.78;;;2.00;99.90;;;;;;5030977;28;20021;-57
2021/12/28 09:34:46;;;;;;;88.28;38.33;;;1.90;99.90;;;;;;5029844;28;20039;-54
2021/12/28 09:37:12;;;;;;;80.38;36.67;;;1.90;99.90;;;;;;5030290;28;20037;-57
2021/12/28 09:39:38;;;;;;;80.97;39.38;;;2.00;99.90;;;;;;5012224;28;20083;-54
2021/12/28 09:42:03;;;;;;;94.53;36.13;;;2.00;99.90;;;;;;5036768;28;20029;-57
2021/12/28 09:44:32;;;;;;;85.97;38.05;;;2.00;99.90;;;;;;5047766;28;20052;-56
2021/12/28 09:46:59;;;;;;;92.20;37.90;;;2.00;99.90;;;;;;5031037;28;20091;-52
2021/12/28 09:49:27;;;;;;;94.20;39.10;;;2.00;99.90;;;;;;5030680;28;20087;-56
2021/12/28 09:51:54;;;;;;;91.85;39.00;;;2.00;99.90;;;;;;5031511;28;20047;-54
2021/12/28 09:54:23;;;;;;;84.95;37.88;;;2.00;99.90;;;;;;5032945;28;20414;-57
2021/12/28 09:56:49;;;;;;;86.18;38.13;;;2.00;99.90;;;;;;5031754;28;20324;-57
2021/12/28 09:59:14;;;;;;;85.95;39.40;;;2.10;99.90;;;;;;5030959;28;20133;-56
2021/12/28 10:01:40;;;;;;;85.63;38.38;;;2.10;99.90;;;;;;5030328;28;20510;-56
2021/12/28 10:04:05;;;;;;;82.68;38.05;;;2.10;99.90;;;;;;5030562;28;20418;-57
2021/12/28 10:06:31;;;;;;;91.97;39.53;;;2.00;99.90;;;;;;5031148;28;20540;-57
2021/12/28 10:09:12;;;;;;;90.32;40.30;;;2.00;99.90;;;;;;5025869;28;20537;-55
2021/12/28 10:11:54;;;;;;;91.50;40.63;;;2.00;99.90;;;;;;5017858;28;20049;-57
2021/12/28 10:14:26;;;;;;;94.60;39.35;;;2.00;99.90;;;;;;5031462;28;20056;-56
2021/12/28 10:16:58;;;;;;;96.10;41.45;;;2.00;99.90;;;;;;5030685;28;20079;-55
2021/12/28 10:19:32;;;;;;;90.32;37.28;;;2.00;99.90;;;;;;5031531;28;20034;-58
2021/12/28 10:22:18;;;;;;;86.00;39.33;;;2.10;99.90;;;;;;5028237;28;20052;-57
2021/12/28 10:24:44;;;;;;;91.22;39.13;;;2.10;99.90;;;;;;5028839;28;20040;-56
2021/12/28 10:27:15;;;;;;;94.38;39.50;;;2.10;99.90;;;;;;5031792;28;20033;-57
2021/12/28 10:29:41;;;;;;;91.63;38.03;;;2.10;99.90;;;;;;5030567;28;20123;-54
2021/12/28 10:32:25;;;;;;;97.18;40.97;;;2.10;99.90;;;;;;5028584;28;20030;-57
2021/12/28 10:34:55;;;;;;;88.07;38.67;;;2.10;99.90;;;;;;5012407;28;20542;-56
2021/12/28 10:37:24;;;;;;;94.80;42.10;;;2.10;99.90;;;;;;5017402;28;20038;-56
2021/12/28 10:39:54;;;;;;;94.25;40.60;;;2.10;99.90;;;;;;5029943;28;20068;-58
2021/12/28 10:42:40;;;;;;;99.03;41.63;;;2.20;99.90;;;;;;5029680;28;20112;-54
2021/12/28 10:45:10;;;;;;;90.18;39.20;;;2.20;99.90;;;;;;5028917;28;20025;-54
2021/12/28 10:47:35;;;;;;;98.88;41.45;;;2.20;99.90;;;;;;5030414;28;20403;-53
2021/12/28 10:50:18;;;;;;;106.85;41.53;;;2.20;99.90;;;;;;5025605;28;20037;-56
2021/12/28 10:52:49;;;;;;;99.10;42.65;;;2.20;99.90;;;;;;5022930;28;20159;-53
2021/12/28 10:55:24;;;;;;;102.28;42.25;;;2.20;99.90;;;;;;5029298;28;20033;-54
2021/12/28 10:57:50;;;;;;;98.70;42.08;;;2.20;99.90;;;;;;5029840;28;20053;-53
2021/12/28 11:00:26;;;;;;;99.03;41.22;;;2.20;99.90;;;;;;5029027;28;20033;-52
2021/12/28 11:03:14;;;;;;;98.75;41.88;;;2.20;99.90;;;;;;5029269;28;20029;-54
2021/12/28 11:05:41;;;;;;;102.53;42.38;;;2.20;99.90;;;;;;5029179;28;20028;-52
2021/12/28 11:08:08;;;;;;;99.63;43.03;;;2.20;99.90;;;;;;5027797;28;20286;-54
2021/12/28 11:10:34;;;;;;;105.82;41.40;;;2.20;99.90;;;;;;5024679;28;20034;-50
2021/12/28 11:13:00;;;;;;;101.38;42.70;;;2.20;99.90;;;;;;5029113;28;20509;-54
2021/12/28 11:15:27;;;;;;;97.43;42.58;;;2.10;99.90;;;;;;5028947;28;20044;-53
2021/12/28 11:17:52;;;;;;;94.93;40.97;;;2.20;99.90;;;;;;5011088;28;20029;-55
2021/12/28 11:20:31;;;;;;;99.10;41.00;;;2.20;99.90;;;;;;5020907;28;20087;-55
2021/12/28 11:23:12;;;;;;;106.57;43.83;;;2.20;99.90;;;;;;5027693;28;20104;-57
2021/12/28 11:25:38;;;;;;;97.03;41.85;;;2.20;99.90;;;;;;5025302;28;20057;-56
2021/12/28 11:28:20;;;;;;;109.47;43.28;;;2.20;99.90;;;;;;5028221;28;20324;-55
2021/12/28 11:31:01;;;;;;;104.63;44.00;;;2.30;99.90;;;;;;5022352;28;20029;-56
2021/12/28 11:33:40;;;;;;;102.63;43.40;;;2.30;99.90;;;;;;5010223;28;20064;-56
2021/12/28 11:36:06;;;;;;;93.68;43.33;;;2.30;99.90;;;;;;5026453;28;20037;-56
2021/12/28 11:38:33;;;;;;;103.38;44.95;;;2.30;99.90;;;;;;5028571;28;20041;-55
2021/12/28 11:40:59;;;;;;;108.20;44.47;;;2.40;99.90;;;;;;5011285;28;20116;-56
2021/12/28 11:43:25;;;;;;;107.28;45.13;;;2.40;99.90;;;;;;5023359;28;20554;-56
2021/12/28 11:45:53;;;;;;;103.03;43.75;;;2.30;99.90;;;;;;5027987;28;20037;-56
2021/12/28 11:48:19;;;;;;;104.13;43.28;;;2.30;99.90;;;;;;5027593;28;20041;-55
2021/12/28 11:50:45;;;;;;;110.53;44.25;;;2.40;99.90;;;;;;5028648;28;20025;-57
2021/12/28 11:53:14;;;;;;;104.10;44.83;;;2.40;99.90;;;;;;5028151;28;20111;-54
2021/12/28 11:55:43;;;;;;;105.03;44.65;;;2.40;99.90;;;;;;5022927;28;20124;-57
2021/12/28 11:58:09;;;;;;;100.90;43.47;;;2.40;99.90;;;;;;5009132;28;20038;-54
2021/12/28 12:00:40;;;;;;;107.22;42.90;;;2.40;99.90;;;;;;5029088;28;20394;-57
2021/12/28 12:03:06;;;;;;;103.70;44.83;;;2.40;99.90;;;;;;5026289;28;20044;-55
2021/12/28 12:05:34;;;;;;;105.93;45.75;;;2.30;99.90;;;;;;5028002;28;20121;-58
2021/12/28 12:08:16;;;;;;;108.03;45.95;;;2.30;99.90;;;;;;5028201;28;20391;-53
2021/12/28 12:10:50;;;;;;;106.18;43.83;;;2.30;99.90;;;;;;5018726;28;20040;-55
2021/12/28 12:13:20;;;;;;;109.25;43.85;;;2.30;99.90;;;;;;5027722;28;20030;-52
2021/12/28 12:15:50;;;;;;;104.55;44.83;;;2.30;99.90;;;;;;5027539;28;20033;-53
2021/12/28 12:18:20;;;;;;;97.85;43.45;;;2.40;99.90;;;;;;5021663;28;20029;-55
2021/12/28 12:21:00;;;;;;;102.25;44.10;;;2.40;99.90;;;;;;5028205;28;20042;-54
2021/12/28 12:23:28;;;;;;;100.88;42.20;;;2.40;99.90;;;;;;5027541;28;20041;-53
2021/12/28 12:25:58;;;;;;;95.68;43.92;;;2.40;99.90;;;;;;5014171;28;20117;-55
2021/12/28 12:28:35;;;;;;;109.82;45.70;;;2.40;99.90;;;;;;5017307;28;20034;-53
2021/12/28 12:31:03;;;;;;;102.50;43.00;;;2.40;99.90;;;;;;5024034;28;20040;-57
2021/12/28 12:33:43;;;;;;;95.38;40.08;;;2.30;99.90;;;;;;5026939;28;20025;-53
2021/12/28 12:36:44;;;;;;;106.28;44.08;;;2.30;99.90;;;;;;5028150;28;20040;-55
2021/12/28 12:39:12;;;;;;;100.32;45.45;;;2.40;99.90;;;;;;5003123;28;20037;-53